Latest Weather Observations for Scotts Peak

IDT60801

Issued at 11:31 am EDT Wednesday 10 February 2016 (issued every 30 minutes, with the page automatically refreshed every 10 minutes)

About weather observations | Map of weather stations | Latest weather observations for TAS | Other Formats
Station Details ID: 097083 Name: SCOTTS PEAK DAM Lat: -43.04 Lon: 146.27 Height: 408.0 m
Data from the previous 72 hours. | See also: Recent months at Scotts Peak
Date/Time
EDT
Temp
°C
App
Temp
°C
Dew
Point
Rel
Hum
%
Delta-T
°C
Wind Press
QNH
hPa
Press
MSL
hPa
Rain
since 9 am
mm
Dir
 
Spd
km/h
Gust
km/h
Spd
kts
Gust
kts
10/11:30am 15.0 11.4 12.0 82 1.7 NW 22 33 12 18 - - 0.0
10/11:00am 15.1 12.7 13.8 92 0.7 NNW 19 22 10 12 - - 0.0
10/10:30am 13.7 10.0 11.6 87 1.1 NNW 22 26 12 14 - - 0.0
10/10:00am 14.0 9.7 10.6 80 1.8 NW 24 30 13 16 - - 0.0
10/09:30am 13.9 9.6 10.7 81 1.7 NNW 24 32 13 17 - - 0.0
10/09:00am 14.1 9.5 10.9 81 1.7 NW 26 33 14 18 - - 0.0
10/08:30am 13.8 9.8 10.6 81 1.7 NW 22 26 12 14 - - 0.0
10/08:00am 13.5 9.1 10.5 82 1.6 NW 24 28 13 15 - - 0.0
10/07:30am 12.9 9.1 9.9 82 1.6 NNW 20 24 11 13 - - 0.0
10/07:00am 12.7 8.2 9.9 83 1.5 NW 24 28 13 15 - - 0.0
10/06:30am 12.6 8.5 10.0 84 1.4 NNW 22 26 12 14 - - 0.0
10/06:00am 12.1 8.8 9.7 85 1.2 NW 17 24 9 13 - - 0.0
10/05:30am 11.7 8.0 9.6 87 1.1 NW 19 22 10 12 - - 0.0
10/05:00am 11.5 7.8 9.4 87 1.1 NW 19 22 10 12 - - 0.0
10/04:30am 11.0 7.5 8.9 87 1.1 NW 17 20 9 11 - - 0.0
10/04:00am 11.4 7.3 8.8 84 1.3 WNW 20 24 11 13 - - 0.0
10/03:30am 11.5 8.0 8.7 83 1.4 NW 17 20 9 11 - - 0.0
10/03:00am 11.3 7.3 8.3 82 1.5 WNW 19 26 10 14 - - 0.0
10/02:30am 11.4 7.3 8.6 83 1.4 W 20 26 11 14 - - 0.0
10/02:00am 11.7 6.4 8.6 81 1.6 WNW 26 32 14 17 - - 0.0
10/01:30am 11.4 7.5 8.8 84 1.3 W 19 26 10 14 - - 0.0
10/01:00am 11.7 7.2 8.7 82 1.5 W 22 26 12 14 - - 0.0
10/12:30am 11.7 7.2 8.6 81 1.6 WNW 22 30 12 16 - - 0.0
10/12:00am 11.6 8.2 9.3 86 1.2 WNW 17 20 9 11 - - 0.0
 
Date/Time
EDT
Temp
°C
App
Temp
°C
Dew
Point
Rel
Hum
%
Delta-T
°C
Wind Press
QNH
hPa
Press
MSL
hPa
Rain
since 9 am
mm
Dir
 
Spd
km/h
Gust
km/h
Spd
kts
Gust
kts
09/11:30pm 11.7 7.7 9.1 84 1.3 W 20 24 11 13 - - 0.0
09/11:00pm 11.7 7.9 8.9 83 1.4 W 19 22 10 12 - - 0.0
09/10:30pm 12.2 8.5 9.4 83 1.4 W 19 24 10 13 - - 0.0
09/10:00pm 12.5 8.8 9.3 81 1.7 WNW 19 24 10 13 - - 0.0
09/09:30pm 12.6 8.9 9.4 81 1.7 W 19 24 10 13 - - 0.0
09/09:00pm 13.1 9.2 9.4 78 1.9 WNW 20 24 11 13 - - 0.0
09/08:30pm 13.8 7.5 9.6 76 2.2 W 33 43 18 23 - - 0.0
09/08:00pm 15.0 8.2 9.4 69 2.9 W 35 48 19 26 - - 0.0
09/07:30pm 16.6 9.9 9.8 64 3.6 W 35 46 19 25 - - 0.0
09/07:00pm 18.3 12.3 10.9 62 4.1 W 33 46 18 25 - - 0.0
09/06:45pm 18.6 12.8 11.4 63 4.0 W 33 43 18 23 - - 0.0
09/06:30pm 18.5 10.7 11.1 62 4.1 WSW 43 54 23 29 - - 0.0
09/06:00pm 19.1 13.2 11.2 60 4.4 WSW 33 43 18 23 - - 0.0
09/05:30pm 22.5 18.0 11.3 49 6.4 W 26 35 14 19 - - 0.0
09/05:29pm 22.6 18.1 11.4 49 6.4 WNW 26 33 14 18 - - 0.0
09/05:00pm 27.6 24.6 12.4 39 9.0 NW 20 24 11 13 - - 0.0
09/04:30pm 28.2 24.7 12.1 37 9.5 NW 22 30 12 16 - - 0.0
09/04:00pm 27.6 23.2 10.3 34 9.9 NNW 24 30 13 16 - - 0.0
09/03:30pm 28.3 23.2 10.5 33 10.2 NNW 28 32 15 17 - - 0.0
09/03:00pm 27.1 23.3 9.9 34 9.7 NNW 20 30 11 16 - - 0.0
09/02:30pm 27.0 23.4 10.7 36 9.4 NNW 20 30 11 16 - - 0.0
09/02:00pm 26.3 22.4 10.9 38 8.8 NNW 22 32 12 17 - - 0.0
09/01:30pm 25.5 21.5 11.7 42 8.0 NNW 24 30 13 16 - - 0.0
09/01:00pm 24.8 21.5 11.7 44 7.6 N 20 28 11 15 - - 0.0
09/12:30pm 24.3 20.9 10.6 42 7.7 NNW 19 22 10 12 - - 0.0
09/12:00pm 23.6 20.0 10.6 44 7.3 NNW 20 26 11 14 - - 0.0
09/11:30am 22.1 18.7 11.2 50 6.2 NNW 20 26 11 14 - - 0.0
09/11:00am 20.7 17.1 10.5 52 5.7 NNW 20 24 11 13 - - 0.0
09/10:30am 19.5 16.2 10.8 57 4.8 NNW 19 26 10 14 - - 0.0
09/10:00am 17.2 14.6 10.6 65 3.6 NNW 15 19 8 10 - - 0.0
09/09:30am 16.9 14.4 11.0 68 3.2 NNW 15 19 8 10 - - 0.0
09/09:00am 14.0 11.0 9.2 73 2.5 WNW 15 22 8 12 - - 0.0
09/08:30am 13.3 9.6 9.4 77 2.0 NW 19 20 10 11 - - 0.0
09/08:00am 12.3 7.9 9.1 81 1.6 NW 22 28 12 15 - - 0.0
09/07:30am 11.2 8.6 9.5 89 0.9 WNW 13 19 7 10 - - 0.0
09/07:00am 11.1 7.6 8.8 86 1.2 WNW 17 20 9 11 - - 0.0
09/06:30am 11.5 7.7 9.2 86 1.2 WNW 19 24 10 13 - - 0.0
09/06:00am 11.4 7.1 9.5 88 1.0 WNW 22 28 12 15 - - 0.0
09/05:30am 11.5 7.6 9.6 88 1.0 WNW 20 24 11 13 - - 0.0
09/05:00am 11.9 7.7 9.6 86 1.2 W 22 26 12 14 - - 0.0
09/04:30am 11.8 7.9 9.5 86 1.2 WNW 20 24 11 13 - - 0.0
09/04:00am 12.0 8.3 10.1 88 1.0 WNW 20 28 11 15 - - 0.0
09/03:30am 12.3 7.9 10.5 89 1.0 WNW 24 30 13 16 - - 0.0
09/03:00am 12.7 8.6 11.3 91 0.8 NW 24 30 13 16 - - 0.0
09/02:30am 12.9 8.7 11.1 89 1.0 NW 24 30 13 16 - - 0.0
09/02:00am 12.7 9.2 10.9 89 1.0 NW 20 24 11 13 - - 0.0
09/01:30am 12.9 9.1 11.1 89 1.0 NW 22 30 12 16 - - 0.0
09/01:00am 12.9 9.2 11.5 91 0.8 NW 22 30 12 16 - - 0.0
09/12:30am 12.6 8.3 10.7 88 1.0 WNW 24 32 13 17 - - 0.0
09/12:00am 12.5 9.1 11.2 92 0.7 NW 20 28 11 15 - - 0.0
 
Date/Time
EDT
Temp
°C
App
Temp
°C
Dew
Point
Rel
Hum
%
Delta-T
°C
Wind Press
QNH
hPa
Press
MSL
hPa
Rain
since 9 am
mm
Dir
 
Spd
km/h
Gust
km/h
Spd
kts
Gust
kts
08/11:30pm 12.8 8.8 11.9 94 0.5 NW 24 30 13 16 - - 0.0
08/11:00pm 12.8 9.1 11.5 92 0.7 NW 22 28 12 15 - - 0.0
08/10:30pm 12.9 8.1 11.5 91 0.8 NW 28 39 15 21 - - 0.0
08/10:00pm 14.0 8.5 10.6 80 1.8 NW 30 39 16 21 - - 0.0
08/09:30pm 14.3 8.4 10.5 78 2.0 NW 32 39 17 21 - - 0.0
08/09:00pm 14.5 8.3 10.1 75 2.3 NW 33 39 18 21 - - 0.0
08/08:30pm 14.4 9.4 9.6 73 2.5 WNW 26 33 14 18 - - 0.0
08/08:00pm 14.7 8.9 9.3 70 2.8 WNW 30 37 16 20 - - 0.0
08/07:30pm 15.1 9.2 9.0 67 3.2 WNW 30 39 16 21 - - 0.0
08/07:00pm 15.3 9.0 9.0 66 3.3 WNW 32 39 17 21 - - 0.0
08/06:30pm 16.1 9.6 8.8 62 3.8 WNW 33 46 18 25 - - 0.0
08/06:00pm 17.2 10.7 8.1 55 4.7 W 32 39 17 21 - - 0.0
08/05:46pm 18.9 12.7 9.4 54 5.1 WNW 32 50 17 27 - - 0.0
08/05:30pm 18.2 11.9 9.0 55 4.9 WNW 32 44 17 24 - - 0.0
08/05:01pm 20.6 13.7 10.4 52 5.6 WNW 37 56 20 30 - - 0.0
08/05:00pm 19.9 12.5 9.8 52 5.5 WNW 39 56 21 30 - - 0.0
08/04:32pm 21.4 15.1 9.6 47 6.5 WNW 33 54 18 29 - - 0.0
08/04:30pm 22.2 16.2 10.7 48 6.4 WNW 33 46 18 25 - - 0.0
08/04:11pm 22.7 16.9 10.8 47 6.7 WNW 32 50 17 27 - - 0.0
08/04:00pm 20.8 14.4 9.4 48 6.2 W 33 46 18 25 - - 0.0
08/03:30pm 20.7 14.2 10.5 52 5.7 WNW 35 44 19 24 - - 0.0
08/03:00pm 21.8 16.2 10.0 47 6.5 NW 30 37 16 20 - - 0.0
08/02:30pm 18.9 11.9 8.3 50 5.6 WNW 35 44 19 24 - - 0.0
08/02:00pm 19.4 13.0 9.3 52 5.4 WNW 33 43 18 23 - - 0.0
08/01:30pm 19.5 13.2 8.8 50 5.7 NW 32 39 17 21 - - 0.0
08/01:00pm 19.4 13.9 10.7 57 4.8 WNW 30 44 16 24 - - 0.0
08/12:30pm 17.4 10.5 8.8 57 4.5 WNW 35 46 19 25 - - 0.0
08/12:16pm 19.2 12.2 8.5 50 5.7 WNW 35 56 19 30 - - 0.0
08/12:00pm 18.7 11.8 8.7 52 5.3 WNW 35 43 19 23 - - 0.0
08/11:30am 17.7 11.8 9.1 57 4.6 WNW 30 41 16 22 - - 0.0
08/11:23am 18.4 12.3 10.3 59 4.4 WNW 33 52 18 28 - - 0.0
08/11:00am 16.9 10.1 9.3 61 4.0 W 35 48 19 26 - - 0.0
08/10:30am 16.4 10.8 10.3 67 3.3 WNW 30 41 16 22 - - 0.0
08/10:00am 15.8 10.2 10.1 69 3.1 WNW 30 41 16 22 - - 0.0
08/09:30am 15.8 9.3 10.3 70 3.0 NW 35 41 19 22 - - 0.0
08/09:00am 15.4 9.7 11.0 75 2.4 NW 32 41 17 22 - - 0.0
08/08:30am 14.2 10.1 10.0 76 2.2 WNW 22 35 12 19 - - 0.0
08/08:00am 14.2 9.4 10.2 77 2.1 WNW 26 35 14 19 - - 0.0
08/07:30am 14.1 9.5 10.9 81 1.7 WNW 26 37 14 20 - - 0.0
08/07:00am 14.1 10.1 11.8 86 1.3 WNW 24 30 13 16 - - 0.0
08/06:30am 14.3 9.9 11.6 84 1.5 NW 26 33 14 18 - - 0.0
08/06:00am 14.1 11.0 11.6 85 1.4 NW 19 28 10 15 - - 0.0
08/05:30am 14.1 11.3 11.3 83 1.5 NW 17 20 9 11 - - 0.0
08/05:00am 13.9 11.4 10.9 82 1.6 NW 15 17 8 9 - - 0.0
08/04:30am 13.9 10.5 10.7 81 1.7 WNW 19 24 10 13 - - 0.0
08/04:00am 13.7 8.9 10.3 80 1.8 WNW 26 30 14 16 - - 0.0
08/03:30am 14.3 10.5 9.9 75 2.3 W 20 26 11 14 - - 0.0
08/03:00am 14.9 11.3 10.7 76 2.3 WNW 20 24 11 13 - - 0.0
08/02:30am 14.6 12.3 11.7 83 1.6 WNW 15 19 8 10 - - 0.0
08/02:00am 14.1 12.8 11.3 83 1.5 NNW 9 13 5 7 - - 0.0
08/01:30am 14.7 13.4 11.1 79 2.0 NW 9 11 5 6 - - 0.0
08/01:00am 15.4 13.8 11.4 77 2.2 W 11 17 6 9 - - 0.0
08/12:30am 16.0 14.0 11.6 75 2.4 WSW 13 17 7 9 - - 0.0
08/12:00am 16.1 15.3 11.7 75 2.4 NW 7 11 4 6 - - 0.0
 
Date/Time
EDT
Temp
°C
App
Temp
°C
Dew
Point
Rel
Hum
%
Delta-T
°C
Wind Press
QNH
hPa
Press
MSL
hPa
Rain
since 9 am
mm
Dir
 
Spd
km/h
Gust
km/h
Spd
kts
Gust
kts
07/11:30pm 16.2 15.4 10.9 71 2.9 WSW 6 7 3 4 - - 0.0
07/11:00pm 16.1 15.0 10.8 71 2.9 WSW 7 9 4 5 - - 0.0
07/10:30pm 16.1 14.4 11.1 72 2.7 WSW 11 15 6 8 - - 0.0
07/10:00pm 16.1 14.8 11.1 72 2.7 W 9 13 5 7 - - 0.0
07/09:30pm 16.0 14.2 11.0 72 2.7 SW 11 15 6 8 - - 0.0
07/09:00pm 16.1 12.2 10.8 71 2.9 WSW 22 32 12 17 - - 0.0
07/08:30pm 16.8 12.2 11.1 69 3.1 WSW 26 33 14 18 - - 0.0
07/08:00pm 18.1 12.1 10.7 62 4.1 WSW 33 44 18 24 - - 0.0
07/07:30pm 19.6 13.9 11.1 58 4.7 WSW 32 41 17 22 - - 0.0
07/07:00pm 20.6 14.9 11.2 55 5.3 WSW 32 39 17 21 - - 0.0
07/06:30pm 21.8 17.0 11.5 52 5.8 WSW 28 35 15 19 - - 0.0
07/06:00pm 21.6 15.7 11.0 51 6.0 SW 33 46 18 25 - - 0.0
07/05:30pm 22.4 16.6 11.5 50 6.2 SW 33 44 18 24 - - 0.0
07/05:00pm 23.9 18.5 12.2 48 6.8 SW 32 43 17 23 - - 0.0
07/04:30pm 24.1 21.1 11.8 46 7.1 WSW 19 30 10 16 - - 0.0
07/04:00pm 24.9 22.1 11.5 43 7.7 WSW 17 22 9 12 - - 0.0
07/03:30pm 28.9 26.0 12.3 36 9.9 NNW 19 24 10 13 - - 0.0
07/03:00pm 26.2 23.9 10.4 37 9.0 NW 13 19 7 10 - - 0.0
07/02:30pm 29.4 27.0 12.8 36 10.0 NNW 17 20 9 11 - - 0.0
07/02:00pm 27.5 25.3 10.7 35 9.7 NW 13 20 7 11 - - 0.0
07/01:30pm 27.3 24.8 10.9 36 9.5 NW 15 20 8 11 - - 0.0
07/01:00pm 27.1 24.4 11.6 38 9.0 NW 17 22 9 12 - - 0.0
07/12:30pm 28.2 25.4 12.5 37 9.3 NNW 19 24 10 13 - - 0.0
07/12:00pm 24.9 22.4 12.2 45 7.4 NW 17 20 9 11 - - 0.0

Other Formats:

Comma delimited format used in spreadsheet applications
http://www.bom.gov.au/fwo/IDT60801/IDT60801.95958.axf

JavaScript Object Notation format (JSON) in row-major order
http://www.bom.gov.au/fwo/IDT60801/IDT60801.95958.json